sensor_id;sensor_type;location;lat;lon;timestamp;temperature;humidity
23385;DHT22;11865;45.394;10.978;2022-12-20T00:01:33;5.70;99.90
23385;DHT22;11865;45.394;10.978;2022-12-20T00:04:03;5.70;99.90
23385;DHT22;11865;45.394;10.978;2022-12-20T00:06:35;5.70;99.90
23385;DHT22;11865;45.394;10.978;2022-12-20T00:09:06;5.70;99.90
23385;DHT22;11865;45.394;10.978;2022-12-20T00:11:34;5.60;99.90
23385;DHT22;11865;45.394;10.978;2022-12-20T00:14:04;5.60;99.90
23385;DHT22;11865;45.394;10.978;2022-12-20T00:16:31;5.70;99.90
23385;DHT22;11865;45.394;10.978;2022-12-20T00:19:01;5.60;99.90
23385;DHT22;11865;45.394;10.978;2022-12-20T00:21:29;5.60;99.90
23385;DHT22;11865;45.394;10.978;2022-12-20T00:23:57;5.70;99.90
23385;DHT22;11865;45.394;10.978;2022-12-20T00:26:28;5.60;99.90
23385;DHT22;11865;45.394;10.978;2022-12-20T00:28:56;5.70;99.90
23385;DHT22;11865;45.394;10.978;2022-12-20T00:31:26;5.60;99.90
23385;DHT22;11865;45.394;10.978;2022-12-20T00:33:56;5.50;99.90
23385;DHT22;11865;45.394;10.978;2022-12-20T00:36:26;5.60;99.90
23385;DHT22;11865;45.394;10.978;2022-12-20T00:38:55;5.70;99.90
23385;DHT22;11865;45.394;10.978;2022-12-20T00:41:25;5.70;99.90
23385;DHT22;11865;45.394;10.978;2022-12-20T00:43:53;5.70;99.90
23385;DHT22;11865;45.394;10.978;2022-12-20T00:46:23;5.70;99.90
23385;DHT22;11865;45.394;10.978;2022-12-20T00:48:52;5.70;99.90
23385;DHT22;11865;45.394;10.978;2022-12-20T00:51:23;5.70;99.90
23385;DHT22;11865;45.394;10.978;2022-12-20T00:53:51;5.70;99.90
23385;DHT22;11865;45.394;10.978;2022-12-20T00:56:19;5.70;99.90
23385;DHT22;11865;45.394;10.978;2022-12-20T00:58:48;5.70;99.90
23385;DHT22;11865;45.394;10.978;2022-12-20T01:01:24;5.80;99.90
23385;DHT22;11865;45.394;10.978;2022-12-20T01:03:53;5.70;99.90
23385;DHT22;11865;45.394;10.978;2022-12-20T01:06:22;5.70;99.90
23385;DHT22;11865;45.394;10.978;2022-12-20T01:08:50;5.70;99.90
23385;DHT22;11865;45.394;10.978;2022-12-20T01:11:31;5.70;99.90
23385;DHT22;11865;45.394;10.978;2022-12-20T01:14:05;5.70;99.90
23385;DHT22;11865;45.394;10.978;2022-12-20T01:16:36;5.60;99.90
23385;DHT22;11865;45.394;10.978;2022-12-20T01:19:05;5.60;99.90
23385;DHT22;11865;45.394;10.978;2022-12-20T01:21:33;5.70;99.90
23385;DHT22;11865;45.394;10.978;2022-12-20T01:24:01;5.80;99.90
23385;DHT22;11865;45.394;10.978;2022-12-20T01:26:29;5.80;99.90
23385;DHT22;11865;45.394;10.978;2022-12-20T01:28:58;5.70;99.90
23385;DHT22;11865;45.394;10.978;2022-12-20T01:31:27;5.80;99.90
23385;DHT22;11865;45.394;10.978;2022-12-20T01:33:55;5.70;99.90
23385;DHT22;11865;45.394;10.978;2022-12-20T01:36:26;5.70;99.90
23385;DHT22;11865;45.394;10.978;2022-12-20T01:39:00;5.70;99.90
23385;DHT22;11865;45.394;10.978;2022-12-20T01:41:29;5.70;99.90
23385;DHT22;11865;45.394;10.978;2022-12-20T01:44:47;5.70;99.90
23385;DHT22;11865;45.394;10.978;2022-12-20T01:46:53;5.70;99.90
23385;DHT22;11865;45.394;10.978;2022-12-20T01:52:03;5.80;99.90
23385;DHT22;11865;45.394;10.978;2022-12-20T01:54:35;5.80;99.90
23385;DHT22;11865;45.394;10.978;2022-12-20T01:57:10;5.70;99.90
23385;DHT22;11865;45.394;10.978;2022-12-20T01:59:41;5.80;99.90
23385;DHT22;11865;45.394;10.978;2022-12-20T02:02:11;5.80;99.90
23385;DHT22;11865;45.394;10.978;2022-12-20T02:04:39;5.80;99.90
23385;DHT22;11865;45.394;10.978;2022-12-20T02:07:07;5.80;99.90
23385;DHT22;11865;45.394;10.978;2022-12-20T02:09:38;5.80;99.90
23385;DHT22;11865;45.394;10.978;2022-12-20T02:12:25;5.80;99.90
23385;DHT22;11865;45.394;10.978;2022-12-20T02:15:09;5.80;99.90
23385;DHT22;11865;45.394;10.978;2022-12-20T02:29:26;6.00;99.90
23385;DHT22;11865;45.394;10.978;2022-12-20T02:32:16;5.90;99.90
23385;DHT22;11865;45.394;10.978;2022-12-20T02:34:45;5.90;99.90
23385;DHT22;11865;45.394;10.978;2022-12-20T02:37:13;5.90;99.90
23385;DHT22;11865;45.394;10.978;2022-12-20T02:39:41;5.80;99.90
23385;DHT22;11865;45.394;10.978;2022-12-20T02:42:12;5.70;99.90
23385;DHT22;11865;45.394;10.978;2022-12-20T02:47:58;5.80;99.90
23385;DHT22;11865;45.394;10.978;2022-12-20T02:50:37;5.80;99.90
23385;DHT22;11865;45.394;10.978;2022-12-20T02:53:06;5.80;99.90
23385;DHT22;11865;45.394;10.978;2022-12-20T02:55:59;5.80;99.90
23385;DHT22;11865;45.394;10.978;2022-12-20T02:58:33;5.90;99.90
23385;DHT22;11865;45.394;10.978;2022-12-20T03:01:10;5.90;99.90
23385;DHT22;11865;45.394;10.978;2022-12-20T03:03:39;5.80;99.90
23385;DHT22;11865;45.394;10.978;2022-12-20T03:06:07;5.80;99.90
23385;DHT22;11865;45.394;10.978;2022-12-20T03:08:34;5.80;99.90
23385;DHT22;11865;45.394;10.978;2022-12-20T03:11:03;5.80;99.90
23385;DHT22;11865;45.394;10.978;2022-12-20T03:13:31;5.80;99.90
23385;DHT22;11865;45.394;10.978;2022-12-20T03:16:03;5.80;99.90
23385;DHT22;11865;45.394;10.978;2022-12-20T03:18:31;5.80;99.90
23385;DHT22;11865;45.394;10.978;2022-12-20T03:20:58;5.80;99.90
23385;DHT22;11865;45.394;10.978;2022-12-20T03:23:26;5.80;99.90
23385;DHT22;11865;45.394;10.978;2022-12-20T03:25:54;5.90;99.90
23385;DHT22;11865;45.394;10.978;2022-12-20T03:28:31;5.90;99.90
23385;DHT22;11865;45.394;10.978;2022-12-20T03:30:59;5.80;99.90
23385;DHT22;11865;45.394;10.978;2022-12-20T03:33:26;5.90;99.90
23385;DHT22;11865;45.394;10.978;2022-12-20T03:35:57;5.90;99.90
23385;DHT22;11865;45.394;10.978;2022-12-20T03:38:24;5.90;99.90
23385;DHT22;11865;45.394;10.978;2022-12-20T03:40:52;5.80;99.90
23385;DHT22;11865;45.394;10.978;2022-12-20T03:43:21;5.80;99.90
23385;DHT22;11865;45.394;10.978;2022-12-20T03:45:49;5.90;99.90
23385;DHT22;11865;45.394;10.978;2022-12-20T03:48:17;5.80;99.90
23385;DHT22;11865;45.394;10.978;2022-12-20T03:50:44;5.70;99.90
23385;DHT22;11865;45.394;10.978;2022-12-20T03:53:12;5.70;99.90
23385;DHT22;11865;45.394;10.978;2022-12-20T03:55:40;5.80;99.90
23385;DHT22;11865;45.394;10.978;2022-12-20T03:58:12;5.90;99.90
23385;DHT22;11865;45.394;10.978;2022-12-20T04:00:40;5.80;99.90
23385;DHT22;11865;45.394;10.978;2022-12-20T04:03:28;5.70;99.90
23385;DHT22;11865;45.394;10.978;2022-12-20T04:05:55;5.70;99.90
23385;DHT22;11865;45.394;10.978;2022-12-20T04:08:23;5.80;99.90
23385;DHT22;11865;45.394;10.978;2022-12-20T04:10:51;5.80;99.90
23385;DHT22;11865;45.394;10.978;2022-12-20T04:13:53;5.90;99.90
23385;DHT22;11865;45.394;10.978;2022-12-20T04:16:27;5.90;99.90
23385;DHT22;11865;45.394;10.978;2022-12-20T04:18:55;5.90;99.90
23385;DHT22;11865;45.394;10.978;2022-12-20T04:21:29;5.80;99.90
23385;DHT22;11865;45.394;10.978;2022-12-20T04:24:00;5.90;99.90
23385;DHT22;11865;45.394;10.978;2022-12-20T04:26:39;5.70;99.90
23385;DHT22;11865;45.394;10.978;2022-12-20T04:29:07;5.80;99.90
23385;DHT22;11865;45.394;10.978;2022-12-20T04:31:35;5.90;99.90
23385;DHT22;11865;45.394;10.978;2022-12-20T04:34:03;5.80;99.90
23385;DHT22;11865;45.394;10.978;2022-12-20T04:36:32;5.90;99.90
23385;DHT22;11865;45.394;10.978;2022-12-20T04:39:04;5.90;99.90
23385;DHT22;11865;45.394;10.978;2022-12-20T04:41:42;5.80;99.90
23385;DHT22;11865;45.394;10.978;2022-12-20T04:44:12;5.90;99.90
23385;DHT22;11865;45.394;10.978;2022-12-20T04:46:40;5.90;99.90
23385;DHT22;11865;45.394;10.978;2022-12-20T04:49:11;6.00;99.90
23385;DHT22;11865;45.394;10.978;2022-12-20T04:51:42;5.90;99.90
23385;DHT22;11865;45.394;10.978;2022-12-20T04:54:11;5.80;99.90
23385;DHT22;11865;45.394;10.978;2022-12-20T04:56:48;5.90;99.90
23385;DHT22;11865;45.394;10.978;2022-12-20T04:59:19;5.90;99.90
23385;DHT22;11865;45.394;10.978;2022-12-20T05:01:50;5.90;99.90
23385;DHT22;11865;45.394;10.978;2022-12-20T05:04:41;5.90;99.90
23385;DHT22;11865;45.394;10.978;2022-12-20T05:07:08;5.90;99.90
23385;DHT22;11865;45.394;10.978;2022-12-20T05:09:37;5.90;99.90
23385;DHT22;11865;45.394;10.978;2022-12-20T05:12:05;5.90;99.90
23385;DHT22;11865;45.394;10.978;2022-12-20T05:14:33;5.90;99.90
23385;DHT22;11865;45.394;10.978;2022-12-20T05:17:01;5.90;99.90
23385;DHT22;11865;45.394;10.978;2022-12-20T05:19:29;6.00;99.90
23385;DHT22;11865;45.394;10.978;2022-12-20T05:21:56;6.10;99.90
23385;DHT22;11865;45.394;10.978;2022-12-20T05:24:55;6.00;99.90
23385;DHT22;11865;45.394;10.978;2022-12-20T05:27:41;6.10;99.90
23385;DHT22;11865;45.394;10.978;2022-12-20T05:30:09;6.00;99.90
23385;DHT22;11865;45.394;10.978;2022-12-20T05:32:37;6.10;99.90
23385;DHT22;11865;45.394;10.978;2022-12-20T05:35:05;6.20;99.90
23385;DHT22;11865;45.394;10.978;2022-12-20T05:37:33;6.20;99.90
23385;DHT22;11865;45.394;10.978;2022-12-20T05:40:10;6.10;99.90
23385;DHT22;11865;45.394;10.978;2022-12-20T05:42:38;6.20;99.90
23385;DHT22;11865;45.394;10.978;2022-12-20T05:45:06;6.10;99.90
23385;DHT22;11865;45.394;10.978;2022-12-20T05:47:42;6.10;99.90
23385;DHT22;11865;45.394;10.978;2022-12-20T05:50:11;6.10;99.90
23385;DHT22;11865;45.394;10.978;2022-12-20T05:53:03;6.20;99.90
23385;DHT22;11865;45.394;10.978;2022-12-20T05:55:44;6.20;99.90
23385;DHT22;11865;45.394;10.978;2022-12-20T05:58:13;6.20;99.90
23385;DHT22;11865;45.394;10.978;2022-12-20T06:00:51;6.20;99.90
23385;DHT22;11865;45.394;10.978;2022-12-20T06:03:19;6.20;99.90
23385;DHT22;11865;45.394;10.978;2022-12-20T06:05:47;6.20;99.90
23385;DHT22;11865;45.394;10.978;2022-12-20T06:08:21;6.30;99.90
23385;DHT22;11865;45.394;10.978;2022-12-20T06:10:51;6.40;99.90
23385;DHT22;11865;45.394;10.978;2022-12-20T06:13:20;6.30;99.90
23385;DHT22;11865;45.394;10.978;2022-12-20T06:15:50;6.40;99.90
23385;DHT22;11865;45.394;10.978;2022-12-20T06:18:18;6.40;99.90
23385;DHT22;11865;45.394;10.978;2022-12-20T06:20:49;6.20;99.90
23385;DHT22;11865;45.394;10.978;2022-12-20T06:23:20;6.20;99.90
23385;DHT22;11865;45.394;10.978;2022-12-20T06:25:57;6.10;99.90
23385;DHT22;11865;45.394;10.978;2022-12-20T06:28:28;6.10;99.90
23385;DHT22;11865;45.394;10.978;2022-12-20T06:30:57;6.10;99.90
23385;DHT22;11865;45.394;10.978;2022-12-20T06:33:38;6.10;99.90
23385;DHT22;11865;45.394;10.978;2022-12-20T06:36:06;6.10;99.90
23385;DHT22;11865;45.394;10.978;2022-12-20T06:38:34;6.10;99.90
23385;DHT22;11865;45.394;10.978;2022-12-20T06:41:02;6.10;99.90
23385;DHT22;11865;45.394;10.978;2022-12-20T06:43:30;5.90;99.90
23385;DHT22;11865;45.394;10.978;2022-12-20T06:45:58;6.10;99.90
23385;DHT22;11865;45.394;10.978;2022-12-20T06:48:25;6.10;99.90
23385;DHT22;11865;45.394;10.978;2022-12-20T06:50:53;6.10;99.90
23385;DHT22;11865;45.394;10.978;2022-12-20T06:53:23;6.00;99.90
23385;DHT22;11865;45.394;10.978;2022-12-20T06:55:51;6.00;99.90
23385;DHT22;11865;45.394;10.978;2022-12-20T06:58:20;6.10;99.90
23385;DHT22;11865;45.394;10.978;2022-12-20T07:00:48;6.10;99.90
23385;DHT22;11865;45.394;10.978;2022-12-20T07:03:16;6.10;99.90
23385;DHT22;11865;45.394;10.978;2022-12-20T07:05:43;6.00;99.90
23385;DHT22;11865;45.394;10.978;2022-12-20T07:08:11;6.20;99.90
23385;DHT22;11865;45.394;10.978;2022-12-20T07:10:38;6.10;99.90
23385;DHT22;11865;45.394;10.978;2022-12-20T07:13:06;6.20;99.90
23385;DHT22;11865;45.394;10.978;2022-12-20T07:15:33;6.10;99.90
23385;DHT22;11865;45.394;10.978;2022-12-20T07:18:01;6.20;99.90
23385;DHT22;11865;45.394;10.978;2022-12-20T07:20:30;6.30;99.90
23385;DHT22;11865;45.394;10.978;2022-12-20T07:22:58;6.30;99.90
23385;DHT22;11865;45.394;10.978;2022-12-20T07:25:26;6.30;99.90
23385;DHT22;11865;45.394;10.978;2022-12-20T07:27:54;6.30;99.90
23385;DHT22;11865;45.394;10.978;2022-12-20T07:30:21;6.30;99.90
23385;DHT22;11865;45.394;10.978;2022-12-20T07:32:49;6.50;99.90
23385;DHT22;11865;45.394;10.978;2022-12-20T07:35:17;6.60;99.90
23385;DHT22;11865;45.394;10.978;2022-12-20T07:37:44;6.40;99.90
23385;DHT22;11865;45.394;10.978;2022-12-20T07:40:12;6.30;99.90
23385;DHT22;11865;45.394;10.978;2022-12-20T07:42:41;6.30;99.90
23385;DHT22;11865;45.394;10.978;2022-12-20T07:45:15;6.20;99.90
23385;DHT22;11865;45.394;10.978;2022-12-20T07:47:42;6.20;99.90
23385;DHT22;11865;45.394;10.978;2022-12-20T07:50:10;6.40;99.90
23385;DHT22;11865;45.394;10.978;2022-12-20T07:52:39;6.50;99.90
23385;DHT22;11865;45.394;10.978;2022-12-20T07:55:08;6.60;99.90
23385;DHT22;11865;45.394;10.978;2022-12-20T07:57:37;6.50;99.90
23385;DHT22;11865;45.394;10.978;2022-12-20T08:00:05;6.50;99.90
23385;DHT22;11865;45.394;10.978;2022-12-20T08:02:53;6.50;99.90
23385;DHT22;11865;45.394;10.978;2022-12-20T08:05:22;6.60;99.90
23385;DHT22;11865;45.394;10.978;2022-12-20T08:07:51;6.60;99.90
23385;DHT22;11865;45.394;10.978;2022-12-20T08:10:26;6.60;99.90
23385;DHT22;11865;45.394;10.978;2022-12-20T08:12:55;6.60;99.90
23385;DHT22;11865;45.394;10.978;2022-12-20T08:15:24;6.60;99.90
23385;DHT22;11865;45.394;10.978;2022-12-20T08:17:51;6.50;99.90
23385;DHT22;11865;45.394;10.978;2022-12-20T08:20:19;6.60;99.90
23385;DHT22;11865;45.394;10.978;2022-12-20T08:22:47;6.70;99.90
23385;DHT22;11865;45.394;10.978;2022-12-20T08:25:14;6.80;99.90
23385;DHT22;11865;45.394;10.978;2022-12-20T08:27:42;6.80;99.90
23385;DHT22;11865;45.394;10.978;2022-12-20T08:30:10;6.60;99.90
23385;DHT22;11865;45.394;10.978;2022-12-20T08:32:37;6.70;99.90
23385;DHT22;11865;45.394;10.978;2022-12-20T08:35:06;6.80;99.90
23385;DHT22;11865;45.394;10.978;2022-12-20T08:37:33;6.80;99.90
23385;DHT22;11865;45.394;10.978;2022-12-20T08:40:01;6.80;99.90
23385;DHT22;11865;45.394;10.978;2022-12-20T08:42:28;6.90;99.90
23385;DHT22;11865;45.394;10.978;2022-12-20T08:44:56;6.80;99.90
23385;DHT22;11865;45.394;10.978;2022-12-20T08:47:23;6.80;99.90
23385;DHT22;11865;45.394;10.978;2022-12-20T08:49:51;6.80;99.90
23385;DHT22;11865;45.394;10.978;2022-12-20T08:52:18;6.80;99.90
23385;DHT22;11865;45.394;10.978;2022-12-20T08:54:46;6.80;99.90
23385;DHT22;11865;45.394;10.978;2022-12-20T08:57:13;7.00;99.90
23385;DHT22;11865;45.394;10.978;2022-12-20T08:59:41;6.90;99.90
23385;DHT22;11865;45.394;10.978;2022-12-20T09:02:08;7.00;99.90
23385;DHT22;11865;45.394;10.978;2022-12-20T09:04:36;6.90;99.90
23385;DHT22;11865;45.394;10.978;2022-12-20T09:07:03;6.90;99.90
23385;DHT22;11865;45.394;10.978;2022-12-20T09:09:31;7.00;99.90
23385;DHT22;11865;45.394;10.978;2022-12-20T09:11:58;6.90;99.90
23385;DHT22;11865;45.394;10.978;2022-12-20T09:14:26;7.00;99.90
23385;DHT22;11865;45.394;10.978;2022-12-20T09:16:53;7.00;99.90
23385;DHT22;11865;45.394;10.978;2022-12-20T09:19:20;7.10;99.90
23385;DHT22;11865;45.394;10.978;2022-12-20T09:21:48;7.30;99.90
23385;DHT22;11865;45.394;10.978;2022-12-20T09:24:15;7.30;99.90
23385;DHT22;11865;45.394;10.978;2022-12-20T09:26:43;7.30;99.90
23385;DHT22;11865;45.394;10.978;2022-12-20T09:29:15;7.30;99.90
23385;DHT22;11865;45.394;10.978;2022-12-20T09:31:52;7.30;99.90
23385;DHT22;11865;45.394;10.978;2022-12-20T09:34:19;7.40;99.90
23385;DHT22;11865;45.394;10.978;2022-12-20T09:36:47;7.30;99.90
23385;DHT22;11865;45.394;10.978;2022-12-20T09:39:14;7.20;99.90
23385;DHT22;11865;45.394;10.978;2022-12-20T09:41:43;7.20;99.90
23385;DHT22;11865;45.394;10.978;2022-12-20T09:44:13;7.50;99.90
23385;DHT22;11865;45.394;10.978;2022-12-20T09:46:43;7.60;99.90
23385;DHT22;11865;45.394;10.978;2022-12-20T09:49:18;7.50;99.90
23385;DHT22;11865;45.394;10.978;2022-12-20T10:00:15;7.60;99.90
23385;DHT22;11865;45.394;10.978;2022-12-20T10:02:43;7.70;99.90
23385;DHT22;11865;45.394;10.978;2022-12-20T10:05:43;7.60;99.90
23385;DHT22;11865;45.394;10.978;2022-12-20T10:16:54;7.80;99.90
23385;DHT22;11865;45.394;10.978;2022-12-20T10:22:13;7.70;99.90
23385;DHT22;11865;45.394;10.978;2022-12-20T10:24:50;7.70;99.90
23385;DHT22;11865;45.394;10.978;2022-12-20T10:27:20;7.60;99.90
23385;DHT22;11865;45.394;10.978;2022-12-20T10:29:48;7.60;99.90
23385;DHT22;11865;45.394;10.978;2022-12-20T10:32:19;7.70;99.90
23385;DHT22;11865;45.394;10.978;2022-12-20T10:34:59;7.60;99.90
23385;DHT22;11865;45.394;10.978;2022-12-20T10:37:55;7.50;99.90
23385;DHT22;11865;45.394;10.978;2022-12-20T10:40:58;7.60;99.90
23385;DHT22;11865;45.394;10.978;2022-12-20T10:43:55;7.60;99.90
23385;DHT22;11865;45.394;10.978;2022-12-20T10:46:46;7.60;99.90
23385;DHT22;11865;45.394;10.978;2022-12-20T10:49:28;7.70;99.90
23385;DHT22;11865;45.394;10.978;2022-12-20T10:54:32;7.60;99.90
23385;DHT22;11865;45.394;10.978;2022-12-20T10:57:11;7.80;99.90
23385;DHT22;11865;45.394;10.978;2022-12-20T10:59:49;7.70;99.90
23385;DHT22;11865;45.394;10.978;2022-12-20T11:02:28;7.80;99.90
23385;DHT22;11865;45.394;10.978;2022-12-20T11:07:57;7.70;99.90
23385;DHT22;11865;45.394;10.978;2022-12-20T11:10:45;7.70;99.90
23385;DHT22;11865;45.394;10.978;2022-12-20T11:13:23;7.70;99.90
23385;DHT22;11865;45.394;10.978;2022-12-20T11:15:54;7.90;99.90
23385;DHT22;11865;45.394;10.978;2022-12-20T11:18:55;8.00;99.90
23385;DHT22;11865;45.394;10.978;2022-12-20T11:21:42;7.90;99.90
23385;DHT22;11865;45.394;10.978;2022-12-20T11:24:16;7.80;99.90
23385;DHT22;11865;45.394;10.978;2022-12-20T11:37:40;8.30;99.90
23385;DHT22;11865;45.394;10.978;2022-12-20T11:40:33;8.00;99.90
23385;DHT22;11865;45.394;10.978;2022-12-20T11:54:09;8.30;99.90
23385;DHT22;11865;45.394;10.978;2022-12-20T11:56:43;8.20;99.90
23385;DHT22;11865;45.394;10.978;2022-12-20T12:04:57;8.10;99.90
23385;DHT22;11865;45.394;10.978;2022-12-20T12:07:30;8.20;99.90
23385;DHT22;11865;45.394;10.978;2022-12-20T12:10:02;8.30;99.90
23385;DHT22;11865;45.394;10.978;2022-12-20T12:12:36;8.40;99.90
23385;DHT22;11865;45.394;10.978;2022-12-20T12:15:36;8.50;99.90
23385;DHT22;11865;45.394;10.978;2022-12-20T12:18:18;8.10;99.90
23385;DHT22;11865;45.394;10.978;2022-12-20T12:21:14;8.40;99.90
23385;DHT22;11865;45.394;10.978;2022-12-20T12:24:05;8.50;99.90
23385;DHT22;11865;45.394;10.978;2022-12-20T12:26:36;8.60;99.90
23385;DHT22;11865;45.394;10.978;2022-12-20T12:31:40;8.50;99.90
23385;DHT22;11865;45.394;10.978;2022-12-20T12:34:16;8.30;99.90
23385;DHT22;11865;45.394;10.978;2022-12-20T12:45:20;8.30;99.90
23385;DHT22;11865;45.394;10.978;2022-12-20T12:47:54;8.30;99.90
23385;DHT22;11865;45.394;10.978;2022-12-20T12:50:28;8.20;99.90
23385;DHT22;11865;45.394;10.978;2022-12-20T13:00:59;8.10;99.90
23385;DHT22;11865;45.394;10.978;2022-12-20T13:11:41;8.10;99.90
23385;DHT22;11865;45.394;10.978;2022-12-20T13:17:44;8.20;99.90
23385;DHT22;11865;45.394;10.978;2022-12-20T13:19:51;8.10;99.90
23385;DHT22;11865;45.394;10.978;2022-12-20T13:22:25;8.10;99.90
23385;DHT22;11865;45.394;10.978;2022-12-20T13:24:58;8.20;99.90
23385;DHT22;11865;45.394;10.978;2022-12-20T13:40:56;8.10;99.90
23385;DHT22;11865;45.394;10.978;2022-12-20T13:43:32;8.10;99.90
23385;DHT22;11865;45.394;10.978;2022-12-20T13:46:11;8.10;99.90
23385;DHT22;11865;45.394;10.978;2022-12-20T13:48:55;8.10;99.90
23385;DHT22;11865;45.394;10.978;2022-12-20T13:51:25;8.00;99.90
23385;DHT22;11865;45.394;10.978;2022-12-20T13:53:53;8.10;99.90
23385;DHT22;11865;45.394;10.978;2022-12-20T13:56:47;8.00;99.90
23385;DHT22;11865;45.394;10.978;2022-12-20T13:59:24;7.90;99.90
23385;DHT22;11865;45.394;10.978;2022-12-20T14:01:55;7.90;99.90
23385;DHT22;11865;45.394;10.978;2022-12-20T14:04:38;7.90;99.90
23385;DHT22;11865;45.394;10.978;2022-12-20T14:07:08;8.00;99.90
23385;DHT22;11865;45.394;10.978;2022-12-20T14:09:42;8.10;99.90
23385;DHT22;11865;45.394;10.978;2022-12-20T14:12:16;8.00;99.90
23385;DHT22;11865;45.394;10.978;2022-12-20T14:14:53;8.10;99.90
23385;DHT22;11865;45.394;10.978;2022-12-20T14:22:30;8.00;99.90
23385;DHT22;11865;45.394;10.978;2022-12-20T14:24:58;8.00;99.90
23385;DHT22;11865;45.394;10.978;2022-12-20T14:27:28;8.10;99.90
23385;DHT22;11865;45.394;10.978;2022-12-20T14:29:57;7.90;99.90
23385;DHT22;11865;45.394;10.978;2022-12-20T14:32:25;8.00;99.90
23385;DHT22;11865;45.394;10.978;2022-12-20T14:34:53;7.90;99.90
23385;DHT22;11865;45.394;10.978;2022-12-20T14:40:17;8.00;99.90
23385;DHT22;11865;45.394;10.978;2022-12-20T14:42:45;7.90;99.90
23385;DHT22;11865;45.394;10.978;2022-12-20T14:48:12;7.90;99.90
23385;DHT22;11865;45.394;10.978;2022-12-20T14:50:51;8.00;99.90
23385;DHT22;11865;45.394;10.978;2022-12-20T14:53:23;7.90;99.90
23385;DHT22;11865;45.394;10.978;2022-12-20T14:55:54;7.90;99.90
23385;DHT22;11865;45.394;10.978;2022-12-20T14:58:32;7.80;99.90
23385;DHT22;11865;45.394;10.978;2022-12-20T15:01:12;7.80;99.90
23385;DHT22;11865;45.394;10.978;2022-12-20T15:03:57;7.80;99.90
23385;DHT22;11865;45.394;10.978;2022-12-20T15:06:43;7.80;99.90
23385;DHT22;11865;45.394;10.978;2022-12-20T15:09:11;7.90;99.90
23385;DHT22;11865;45.394;10.978;2022-12-20T15:11:40;7.70;99.90
23385;DHT22;11865;45.394;10.978;2022-12-20T15:14:31;7.80;99.90
23385;DHT22;11865;45.394;10.978;2022-12-20T15:16:55;7.70;99.90
23385;DHT22;11865;45.394;10.978;2022-12-20T15:19:23;7.80;99.90
23385;DHT22;11865;45.394;10.978;2022-12-20T15:21:50;7.70;99.90
23385;DHT22;11865;45.394;10.978;2022-12-20T15:24:18;7.80;99.90
23385;DHT22;11865;45.394;10.978;2022-12-20T15:26:47;7.80;99.90
23385;DHT22;11865;45.394;10.978;2022-12-20T15:29:15;7.80;99.90
23385;DHT22;11865;45.394;10.978;2022-12-20T15:31:43;7.80;99.90
23385;DHT22;11865;45.394;10.978;2022-12-20T15:34:19;7.70;99.90
23385;DHT22;11865;45.394;10.978;2022-12-20T15:36:51;7.80;99.90
23385;DHT22;11865;45.394;10.978;2022-12-20T15:39:18;7.70;99.90
23385;DHT22;11865;45.394;10.978;2022-12-20T15:41:47;7.80;99.90
23385;DHT22;11865;45.394;10.978;2022-12-20T15:44:19;7.60;99.90
23385;DHT22;11865;45.394;10.978;2022-12-20T15:46:47;7.70;99.90
23385;DHT22;11865;45.394;10.978;2022-12-20T15:49:15;7.80;99.90
23385;DHT22;11865;45.394;10.978;2022-12-20T15:51:43;7.70;99.90
23385;DHT22;11865;45.394;10.978;2022-12-20T15:54:30;7.70;99.90
23385;DHT22;11865;45.394;10.978;2022-12-20T15:57:01;7.80;99.90
23385;DHT22;11865;45.394;10.978;2022-12-20T15:59:29;7.80;99.90
23385;DHT22;11865;45.394;10.978;2022-12-20T16:02:21;7.80;99.90
23385;DHT22;11865;45.394;10.978;2022-12-20T16:04:49;7.70;99.90
23385;DHT22;11865;45.394;10.978;2022-12-20T16:07:16;7.70;99.90
23385;DHT22;11865;45.394;10.978;2022-12-20T16:09:44;7.70;99.90
23385;DHT22;11865;45.394;10.978;2022-12-20T16:12:24;7.80;99.90
23385;DHT22;11865;45.394;10.978;2022-12-20T16:14:52;7.90;99.90
23385;DHT22;11865;45.394;10.978;2022-12-20T16:17:21;7.70;99.90
23385;DHT22;11865;45.394;10.978;2022-12-20T16:19:48;7.90;99.90
23385;DHT22;11865;45.394;10.978;2022-12-20T16:22:19;8.00;99.90
23385;DHT22;11865;45.394;10.978;2022-12-20T16:24:48;8.00;99.90
23385;DHT22;11865;45.394;10.978;2022-12-20T16:27:16;7.90;99.90
23385;DHT22;11865;45.394;10.978;2022-12-20T16:29:43;7.90;99.90
23385;DHT22;11865;45.394;10.978;2022-12-20T16:32:18;8.00;99.90
23385;DHT22;11865;45.394;10.978;2022-12-20T16:34:46;8.00;99.90
23385;DHT22;11865;45.394;10.978;2022-12-20T16:37:14;7.80;99.90
23385;DHT22;11865;45.394;10.978;2022-12-20T16:39:42;7.90;99.90
23385;DHT22;11865;45.394;10.978;2022-12-20T16:42:13;7.90;99.90
23385;DHT22;11865;45.394;10.978;2022-12-20T16:44:41;7.80;99.90
23385;DHT22;11865;45.394;10.978;2022-12-20T16:47:10;7.80;99.90
23385;DHT22;11865;45.394;10.978;2022-12-20T16:49:38;7.80;99.90
23385;DHT22;11865;45.394;10.978;2022-12-20T16:52:12;7.80;99.90
23385;DHT22;11865;45.394;10.978;2022-12-20T16:54:41;7.70;99.90
23385;DHT22;11865;45.394;10.978;2022-12-20T16:57:09;7.70;99.90
23385;DHT22;11865;45.394;10.978;2022-12-20T16:59:36;7.70;99.90
23385;DHT22;11865;45.394;10.978;2022-12-20T17:02:04;7.80;99.90
23385;DHT22;11865;45.394;10.978;2022-12-20T17:04:38;7.90;99.90
23385;DHT22;11865;45.394;10.978;2022-12-20T17:07:06;7.90;99.90
23385;DHT22;11865;45.394;10.978;2022-12-20T17:09:33;8.00;99.90
23385;DHT22;11865;45.394;10.978;2022-12-20T17:12:18;8.10;99.90
23385;DHT22;11865;45.394;10.978;2022-12-20T17:14:46;8.10;99.90
23385;DHT22;11865;45.394;10.978;2022-12-20T17:17:14;8.00;99.90
23385;DHT22;11865;45.394;10.978;2022-12-20T17:19:42;8.20;99.90
23385;DHT22;11865;45.394;10.978;2022-12-20T17:22:10;8.20;99.90
23385;DHT22;11865;45.394;10.978;2022-12-20T17:24:55;8.10;99.90
23385;DHT22;11865;45.394;10.978;2022-12-20T17:27:23;8.10;99.90
23385;DHT22;11865;45.394;10.978;2022-12-20T17:29:50;8.00;99.90
23385;DHT22;11865;45.394;10.978;2022-12-20T17:32:19;8.10;99.90
23385;DHT22;11865;45.394;10.978;2022-12-20T17:34:47;8.00;99.90
23385;DHT22;11865;45.394;10.978;2022-12-20T17:37:14;8.00;99.90
23385;DHT22;11865;45.394;10.978;2022-12-20T17:39:42;8.20;99.90
23385;DHT22;11865;45.394;10.978;2022-12-20T17:42:12;8.10;99.90
23385;DHT22;11865;45.394;10.978;2022-12-20T17:44:39;8.10;99.90
23385;DHT22;11865;45.394;10.978;2022-12-20T17:47:07;8.10;99.90
23385;DHT22;11865;45.394;10.978;2022-12-20T17:49:34;8.00;99.90
23385;DHT22;11865;45.394;10.978;2022-12-20T17:52:01;8.00;99.90
23385;DHT22;11865;45.394;10.978;2022-12-20T17:54:28;8.00;99.90
23385;DHT22;11865;45.394;10.978;2022-12-20T17:57:05;7.90;99.90
23385;DHT22;11865;45.394;10.978;2022-12-20T17:59:32;7.90;99.90
23385;DHT22;11865;45.394;10.978;2022-12-20T18:02:00;7.80;99.90
23385;DHT22;11865;45.394;10.978;2022-12-20T18:04:27;7.90;99.90